N454FA KBOI-KSLC
Flight info
| Callsign | N454FA |
|---|---|
| Flight time | 1h 4m |
| Altitude | VFR |
| Route | VFR |
| Aircraft | C700/M-VGDW/C |
Departure
| Time | 2026-05-06 01:02 |
|---|---|
| Airport | Boise Air Terminal/Gowen Field (KBOI) |
Arrival
| Time | 2026-05-06 02:07 |
|---|---|
| Airport | Salt Lake City International Airport (KSLC) |
| Time | Latitude | Longitude | Altitude | Speed | Heading |
|---|---|---|---|---|---|
| 2026-05-06 00:48 | 43.55930 | -116.21859 | 2859 ft | 0 kts | 172° |
| 2026-05-06 00:50 | 43.55929 | -116.21859 | 2859 ft | 0 kts | 172° |
| 2026-05-06 00:50 | 43.55922 | -116.21846 | 2855 ft | 7 kts | 105° |
| 2026-05-06 00:50 | 43.55943 | -116.21821 | 2857 ft | 0 kts | 356° |
| 2026-05-06 00:51 | 43.55975 | -116.21830 | 2859 ft | 13 kts | 343° |
| 2026-05-06 00:51 | 43.56049 | -116.21937 | 2857 ft | 19 kts | 304° |
| 2026-05-06 00:52 | 43.56116 | -116.22046 | 2854 ft | 17 kts | 300° |
| 2026-05-06 00:52 | 43.56176 | -116.22226 | 2852 ft | 24 kts | 295° |
| 2026-05-06 00:52 | 43.56217 | -116.22343 | 2849 ft | 10 kts | 296° |
| 2026-05-06 00:52 | 43.56255 | -116.22456 | 2850 ft | 15 kts | 294° |
| 2026-05-06 00:53 | 43.56268 | -116.22495 | 2851 ft | 0 kts | 297° |
| 2026-05-06 00:53 | 43.56281 | -116.22532 | 2851 ft | 11 kts | 295° |
| 2026-05-06 00:53 | 43.56333 | -116.22680 | 2853 ft | 23 kts | 296° |
| 2026-05-06 00:53 | 43.56417 | -116.22922 | 2851 ft | 31 kts | 296° |
| 2026-05-06 00:54 | 43.56447 | -116.23019 | 2850 ft | 15 kts | 292° |
| 2026-05-06 00:54 | 43.56503 | -116.23187 | 2846 ft | 15 kts | 298° |
| 2026-05-06 00:54 | 43.56526 | -116.23238 | 2847 ft | 12 kts | 312° |
| 2026-05-06 00:54 | 43.56581 | -116.23226 | 2845 ft | 14 kts | 23° |
| 2026-05-06 00:55 | 43.56713 | -116.23143 | 2843 ft | 28 kts | 24° |
| 2026-05-06 00:55 | 43.56837 | -116.23063 | 2835 ft | 25 kts | 25° |
| 2026-05-06 00:55 | 43.56966 | -116.22895 | 2838 ft | 30 kts | 78° |
| 2026-05-06 00:55 | 43.56956 | -116.22804 | 2837 ft | 0 kts | 161° |
| 2026-05-06 00:57 | 43.56906 | -116.22790 | 2839 ft | 17 kts | 185° |
| 2026-05-06 00:57 | 43.56832 | -116.22761 | 2842 ft | 20 kts | 146° |
| 2026-05-06 00:58 | 43.56740 | -116.22511 | 2845 ft | 40 kts | 114° |
| 2026-05-06 00:58 | 43.56592 | -116.22075 | 2849 ft | 59 kts | 113° |
| 2026-05-06 00:58 | 43.56398 | -116.21504 | 2854 ft | 49 kts | 115° |
| 2026-05-06 00:58 | 43.56318 | -116.21272 | 2862 ft | 25 kts | 116° |
| 2026-05-06 00:59 | 43.56243 | -116.21053 | 2866 ft | 23 kts | 113° |
| 2026-05-06 00:59 | 43.56159 | -116.20873 | 2865 ft | 10 kts | 163° |
| 2026-05-06 00:59 | 43.56038 | -116.20932 | 2863 ft | 16 kts | 206° |
| 2026-05-06 00:59 | 43.55985 | -116.20967 | 2864 ft | 0 kts | 202° |
| 2026-05-06 01:00 | 43.55971 | -116.20976 | 2865 ft | 9 kts | 204° |
| 2026-05-06 01:00 | 43.55909 | -116.21086 | 2866 ft | 9 kts | 279° |
| 2026-05-06 01:00 | 43.55986 | -116.21302 | 2864 ft | 57 kts | 295° |
| 2026-05-06 01:01 | 43.56272 | -116.22134 | 2880 ft | 128 kts | 296° |
| 2026-05-06 01:01 | 43.56715 | -116.23403 | 2901 ft | 165 kts | 296° |
| 2026-05-06 01:01 | 43.57209 | -116.24831 | 3194 ft | 154 kts | 298° |
| 2026-05-06 01:01 | 43.57630 | -116.26094 | 3324 ft | 138 kts | 301° |
| 2026-05-06 01:02 | 43.58064 | -116.27184 | 3305 ft | 123 kts | 322° |
| 2026-05-06 01:02 | 43.58850 | -116.27358 | 3215 ft | 124 kts | 21° |
| 2026-05-06 01:02 | 43.59408 | -116.26246 | 3045 ft | 188 kts | 72° |
| 2026-05-06 01:02 | 43.59820 | -116.24178 | 3509 ft | 242 kts | 71° |
| 2026-05-06 01:03 | 43.60238 | -116.21892 | 4764 ft | 249 kts | 72° |
| 2026-05-06 01:03 | 43.60679 | -116.19439 | 5344 ft | 269 kts | 72° |
| 2026-05-06 01:03 | 43.61120 | -116.16958 | 5342 ft | 260 kts | 71° |
| 2026-05-06 01:03 | 43.61513 | -116.14582 | 5345 ft | 249 kts | 72° |
| 2026-05-06 01:04 | 43.61903 | -116.12275 | 5340 ft | 246 kts | 72° |
| 2026-05-06 01:04 | 43.62303 | -116.09992 | 5325 ft | 242 kts | 72° |
| 2026-05-06 01:04 | 43.62597 | -116.07713 | 5366 ft | 248 kts | 83° |
| 2026-05-06 01:04 | 43.62625 | -116.05279 | 6620 ft | 248 kts | 85° |
| 2026-05-06 01:05 | 43.62592 | -116.02728 | 7451 ft | 287 kts | 86° |
| 2026-05-06 01:05 | 43.62494 | -115.99991 | 7341 ft | 288 kts | 93° |
| 2026-05-06 01:05 | 43.61857 | -115.97420 | 7341 ft | 278 kts | 110° |
| 2026-05-06 01:05 | 43.60822 | -115.95229 | 7334 ft | 270 kts | 128° |
| 2026-05-06 01:06 | 43.59506 | -115.93371 | 7339 ft | 273 kts | 132° |
| 2026-05-06 01:06 | 43.58092 | -115.91591 | 7380 ft | 280 kts | 138° |
| 2026-05-06 01:06 | 43.56509 | -115.89995 | 7372 ft | 281 kts | 142° |
| 2026-05-06 01:06 | 43.54903 | -115.88461 | 7364 ft | 279 kts | 142° |
| 2026-05-06 01:07 | 43.53312 | -115.86949 | 7366 ft | 277 kts | 143° |
| 2026-05-06 01:07 | 43.51728 | -115.85433 | 7361 ft | 277 kts | 143° |
| 2026-05-06 01:07 | 43.50146 | -115.83906 | 7356 ft | 277 kts | 143° |
| 2026-05-06 01:07 | 43.48566 | -115.82376 | 7359 ft | 278 kts | 142° |
| 2026-05-06 01:08 | 43.46973 | -115.80848 | 7344 ft | 280 kts | 142° |
| 2026-05-06 01:08 | 43.45380 | -115.79328 | 7342 ft | 277 kts | 142° |
| 2026-05-06 01:08 | 43.43799 | -115.77819 | 7331 ft | 275 kts | 142° |
| 2026-05-06 01:08 | 43.42228 | -115.76323 | 7326 ft | 275 kts | 142° |
| 2026-05-06 01:09 | 43.40674 | -115.74838 | 7323 ft | 276 kts | 142° |
| 2026-05-06 01:09 | 43.39084 | -115.73334 | 7330 ft | 279 kts | 143° |
| 2026-05-06 01:09 | 43.37482 | -115.71812 | 7334 ft | 281 kts | 143° |
| 2026-05-06 01:09 | 43.35879 | -115.70267 | 7336 ft | 281 kts | 143° |
| 2026-05-06 01:10 | 43.34288 | -115.68720 | 7327 ft | 280 kts | 143° |
| 2026-05-06 01:10 | 43.32714 | -115.67179 | 7339 ft | 277 kts | 143° |
| 2026-05-06 01:10 | 43.31126 | -115.65623 | 7338 ft | 283 kts | 142° |
| 2026-05-06 01:10 | 43.29520 | -115.64039 | 7333 ft | 285 kts | 142° |
| 2026-05-06 01:11 | 43.27924 | -115.62463 | 7332 ft | 283 kts | 142° |
| 2026-05-06 01:11 | 43.26326 | -115.60897 | 7329 ft | 279 kts | 142° |
| 2026-05-06 01:11 | 43.24735 | -115.59350 | 7326 ft | 281 kts | 142° |
| 2026-05-06 01:11 | 43.23654 | -115.58298 | 7338 ft | 283 kts | 142° |
| 2026-05-06 01:12 | 43.22043 | -115.56728 | 7345 ft | 284 kts | 142° |
| 2026-05-06 01:12 | 43.20454 | -115.55179 | 7341 ft | 284 kts | 143° |
| 2026-05-06 01:12 | 43.18850 | -115.53611 | 7340 ft | 283 kts | 143° |
| 2026-05-06 01:12 | 43.17249 | -115.52036 | 7337 ft | 284 kts | 142° |
| 2026-05-06 01:13 | 43.15645 | -115.50457 | 7338 ft | 283 kts | 142° |
| 2026-05-06 01:13 | 43.14042 | -115.48866 | 7340 ft | 286 kts | 142° |
| 2026-05-06 01:13 | 43.12431 | -115.47264 | 7334 ft | 286 kts | 142° |
| 2026-05-06 01:13 | 43.10827 | -115.45664 | 7333 ft | 283 kts | 142° |
| 2026-05-06 01:14 | 43.07658 | -115.42506 | 7322 ft | 281 kts | 142° |
| 2026-05-06 01:14 | 43.06090 | -115.40961 | 7315 ft | 282 kts | 142° |
| 2026-05-06 01:14 | 43.04491 | -115.39382 | 7322 ft | 283 kts | 143° |
| 2026-05-06 01:15 | 43.02910 | -115.37786 | 7317 ft | 282 kts | 142° |
| 2026-05-06 01:15 | 43.01335 | -115.36182 | 7316 ft | 282 kts | 142° |
| 2026-05-06 01:15 | 42.99762 | -115.34586 | 7313 ft | 281 kts | 142° |
| 2026-05-06 01:15 | 42.98194 | -115.32996 | 7312 ft | 280 kts | 142° |
| 2026-05-06 01:16 | 42.96632 | -115.31407 | 7310 ft | 280 kts | 142° |
| 2026-05-06 01:16 | 42.95092 | -115.29834 | 7309 ft | 280 kts | 142° |
| 2026-05-06 01:16 | 42.93528 | -115.28234 | 7309 ft | 281 kts | 142° |
| 2026-05-06 01:16 | 42.91963 | -115.26636 | 7308 ft | 281 kts | 142° |
| 2026-05-06 01:17 | 42.90400 | -115.25039 | 7310 ft | 281 kts | 142° |
| 2026-05-06 01:17 | 42.88840 | -115.23439 | 7313 ft | 281 kts | 142° |
| 2026-05-06 01:17 | 42.87265 | -115.21823 | 7315 ft | 284 kts | 142° |
| 2026-05-06 01:17 | 42.85681 | -115.20204 | 7312 ft | 284 kts | 142° |
| 2026-05-06 01:18 | 42.84172 | -115.18509 | 7295 ft | 280 kts | 128° |
| 2026-05-06 01:18 | 42.83072 | -115.16344 | 7296 ft | 277 kts | 118° |
| 2026-05-06 01:18 | 42.82077 | -115.14097 | 7303 ft | 277 kts | 117° |
| 2026-05-06 01:18 | 42.81093 | -115.11833 | 7305 ft | 278 kts | 117° |
| 2026-05-06 01:19 | 42.80121 | -115.09583 | 7304 ft | 280 kts | 117° |
| 2026-05-06 01:19 | 42.79200 | -115.07252 | 7300 ft | 278 kts | 109° |
| 2026-05-06 01:19 | 42.78573 | -115.04776 | 7297 ft | 276 kts | 103° |
| 2026-05-06 01:19 | 42.78017 | -115.02276 | 7297 ft | 275 kts | 102° |
| 2026-05-06 01:20 | 42.77467 | -114.99778 | 7300 ft | 275 kts | 102° |
| 2026-05-06 01:20 | 42.76916 | -114.97287 | 7299 ft | 275 kts | 102° |
| 2026-05-06 01:20 | 42.76363 | -114.94796 | 7299 ft | 276 kts | 102° |
| 2026-05-06 01:20 | 42.75819 | -114.92285 | 7304 ft | 277 kts | 102° |
| 2026-05-06 01:21 | 42.75273 | -114.89764 | 7319 ft | 278 kts | 102° |
| 2026-05-06 01:21 | 42.74730 | -114.87241 | 7317 ft | 277 kts | 102° |
| 2026-05-06 01:21 | 42.74187 | -114.84727 | 7324 ft | 276 kts | 102° |
| 2026-05-06 01:21 | 42.73651 | -114.82254 | 7331 ft | 275 kts | 102° |
| 2026-05-06 01:22 | 42.73113 | -114.79763 | 7332 ft | 274 kts | 102° |
| 2026-05-06 01:22 | 42.72570 | -114.77262 | 7340 ft | 275 kts | 102° |
| 2026-05-06 01:22 | 42.72030 | -114.74775 | 7355 ft | 274 kts | 102° |
| 2026-05-06 01:22 | 42.71501 | -114.72263 | 7363 ft | 275 kts | 103° |
| 2026-05-06 01:23 | 42.71009 | -114.69784 | 7369 ft | 275 kts | 102° |
| 2026-05-06 01:23 | 42.70520 | -114.67281 | 7374 ft | 274 kts | 102° |
| 2026-05-06 01:23 | 42.70033 | -114.64779 | 7376 ft | 272 kts | 102° |
| 2026-05-06 01:23 | 42.69544 | -114.62290 | 7380 ft | 273 kts | 102° |
| 2026-05-06 01:24 | 42.69052 | -114.59793 | 7386 ft | 273 kts | 102° |
| 2026-05-06 01:24 | 42.68561 | -114.57294 | 7392 ft | 274 kts | 102° |
| 2026-05-06 01:24 | 42.68071 | -114.54789 | 7393 ft | 275 kts | 102° |
| 2026-05-06 01:24 | 42.67585 | -114.52281 | 7395 ft | 275 kts | 103° |
| 2026-05-06 01:25 | 42.67111 | -114.49755 | 7398 ft | 276 kts | 102° |
| 2026-05-06 01:25 | 42.66646 | -114.47216 | 7398 ft | 277 kts | 102° |
| 2026-05-06 01:25 | 42.66183 | -114.44680 | 7389 ft | 276 kts | 102° |
| 2026-05-06 01:25 | 42.65723 | -114.42155 | 7386 ft | 274 kts | 102° |
| 2026-05-06 01:26 | 42.65263 | -114.39639 | 7381 ft | 273 kts | 102° |
| 2026-05-06 01:26 | 42.64814 | -114.37169 | 7304 ft | 273 kts | 102° |
| 2026-05-06 01:26 | 42.64361 | -114.34641 | 7312 ft | 276 kts | 102° |
| 2026-05-06 01:26 | 42.63905 | -114.32093 | 7310 ft | 278 kts | 102° |
| 2026-05-06 01:27 | 42.63453 | -114.29541 | 7311 ft | 278 kts | 102° |
| 2026-05-06 01:27 | 42.63001 | -114.26997 | 7319 ft | 275 kts | 103° |
| 2026-05-06 01:27 | 42.62282 | -114.24648 | 7308 ft | 268 kts | 124° |
| 2026-05-06 01:27 | 42.61146 | -114.22668 | 7321 ft | 265 kts | 131° |
| 2026-05-06 01:28 | 42.59943 | -114.20756 | 7328 ft | 267 kts | 131° |
| 2026-05-06 01:28 | 42.58735 | -114.18862 | 7335 ft | 269 kts | 132° |
| 2026-05-06 01:28 | 42.57506 | -114.16944 | 7345 ft | 270 kts | 132° |
| 2026-05-06 01:28 | 42.56271 | -114.15019 | 7352 ft | 269 kts | 132° |
| 2026-05-06 01:29 | 42.55042 | -114.13110 | 7356 ft | 268 kts | 132° |
| 2026-05-06 01:29 | 42.53816 | -114.11200 | 7368 ft | 268 kts | 132° |
| 2026-05-06 01:29 | 42.52592 | -114.09301 | 7372 ft | 267 kts | 132° |
| 2026-05-06 01:29 | 42.51370 | -114.07405 | 7375 ft | 267 kts | 132° |
| 2026-05-06 01:30 | 42.50145 | -114.05506 | 7380 ft | 267 kts | 132° |
| 2026-05-06 01:30 | 42.48936 | -114.03630 | 7378 ft | 258 kts | 131° |
| 2026-05-06 01:30 | 42.47790 | -114.01850 | 7378 ft | 243 kts | 132° |
| 2026-05-06 01:30 | 42.46705 | -114.00157 | 7387 ft | 231 kts | 132° |
| 2026-05-06 01:31 | 42.45682 | -113.98558 | 7260 ft | 228 kts | 131° |
| 2026-05-06 01:31 | 42.44633 | -113.96930 | 7015 ft | 229 kts | 132° |
| 2026-05-06 01:31 | 42.43591 | -113.95295 | 6851 ft | 227 kts | 132° |
| 2026-05-06 01:31 | 42.42568 | -113.93672 | 6658 ft | 225 kts | 131° |
| 2026-05-06 01:32 | 42.41544 | -113.92080 | 6464 ft | 224 kts | 131° |
| 2026-05-06 01:32 | 42.40499 | -113.90514 | 6307 ft | 222 kts | 131° |
| 2026-05-06 01:32 | 42.39469 | -113.88981 | 6054 ft | 224 kts | 132° |
| 2026-05-06 01:32 | 42.38428 | -113.87427 | 6004 ft | 216 kts | 131° |
| 2026-05-06 01:33 | 42.37435 | -113.85946 | 5999 ft | 211 kts | 131° |
| 2026-05-06 01:33 | 42.36445 | -113.84470 | 5996 ft | 213 kts | 132° |
| 2026-05-06 01:33 | 42.35458 | -113.82995 | 6000 ft | 216 kts | 132° |
| 2026-05-06 01:33 | 42.34443 | -113.81479 | 5997 ft | 220 kts | 131° |
| 2026-05-06 01:34 | 42.33412 | -113.79942 | 5992 ft | 221 kts | 131° |
| 2026-05-06 01:34 | 42.32375 | -113.78399 | 5994 ft | 222 kts | 131° |
| 2026-05-06 01:34 | 42.31340 | -113.76858 | 5983 ft | 221 kts | 131° |
| 2026-05-06 01:34 | 42.30302 | -113.75325 | 5982 ft | 220 kts | 131° |
| 2026-05-06 01:35 | 42.29253 | -113.73798 | 5985 ft | 222 kts | 132° |
| 2026-05-06 01:35 | 42.28264 | -113.72378 | 6548 ft | 184 kts | 134° |
| 2026-05-06 01:35 | 42.27499 | -113.71288 | 7094 ft | 152 kts | 134° |
| 2026-05-06 01:35 | 42.26934 | -113.70694 | 6815 ft | 34 kts | 352° |
| 2026-05-06 01:36 | 42.27089 | -113.70929 | 8594 ft | 80 kts | 323° |
| 2026-05-06 01:36 | 42.27427 | -113.70979 | 9497 ft | 40 kts | 14° |
| 2026-05-06 01:36 | 42.27553 | -113.70945 | 7273 ft | 0 kts | 354° |
| 2026-05-06 01:36 | 42.27523 | -113.69358 | 7110 ft | 181 kts | 86° |
| 2026-05-06 01:37 | 42.27137 | -113.67769 | 6941 ft | 180 kts | 128° |
| 2026-05-06 01:37 | 42.26320 | -113.66532 | 6846 ft | 174 kts | 132° |
| 2026-05-06 01:37 | 42.25529 | -113.65305 | 6737 ft | 177 kts | 131° |
| 2026-05-06 01:37 | 42.24645 | -113.63921 | 6493 ft | 234 kts | 131° |
| 2026-05-06 01:38 | 42.23415 | -113.62049 | 6599 ft | 287 kts | 132° |
| 2026-05-06 01:38 | 42.22152 | -113.60134 | 7594 ft | 266 kts | 132° |
| 2026-05-06 01:38 | 42.20895 | -113.58211 | 7943 ft | 274 kts | 131° |
| 2026-05-06 01:38 | 42.19658 | -113.56329 | 7950 ft | 261 kts | 131° |
| 2026-05-06 01:39 | 42.18485 | -113.54552 | 7946 ft | 245 kts | 131° |
| 2026-05-06 01:39 | 42.17393 | -113.52892 | 7951 ft | 227 kts | 131° |
| 2026-05-06 01:39 | 42.16400 | -113.51391 | 7944 ft | 208 kts | 132° |
| 2026-05-06 01:39 | 42.15424 | -113.49889 | 7952 ft | 221 kts | 132° |
| 2026-05-06 01:40 | 42.14390 | -113.48289 | 7975 ft | 245 kts | 130° |
| 2026-05-06 01:40 | 42.13215 | -113.46547 | 7973 ft | 248 kts | 132° |
| 2026-05-06 01:40 | 42.12049 | -113.44836 | 7964 ft | 247 kts | 132° |
| 2026-05-06 01:40 | 42.10906 | -113.43130 | 7956 ft | 244 kts | 131° |
| 2026-05-06 01:41 | 42.09769 | -113.41433 | 7962 ft | 245 kts | 131° |
| 2026-05-06 01:41 | 42.07688 | -113.38361 | 7971 ft | 243 kts | 131° |
| 2026-05-06 01:41 | 42.06547 | -113.36681 | 7962 ft | 242 kts | 131° |
| 2026-05-06 01:42 | 42.05402 | -113.35001 | 7956 ft | 245 kts | 132° |
| 2026-05-06 01:42 | 42.04259 | -113.33315 | 7957 ft | 244 kts | 131° |
| 2026-05-06 01:42 | 42.03098 | -113.31618 | 7956 ft | 247 kts | 131° |
| 2026-05-06 01:42 | 42.01948 | -113.29940 | 7969 ft | 247 kts | 131° |
| 2026-05-06 01:43 | 42.00797 | -113.28248 | 7964 ft | 243 kts | 131° |
| 2026-05-06 01:43 | 41.99657 | -113.26568 | 7947 ft | 244 kts | 131° |
| 2026-05-06 01:43 | 41.98502 | -113.24891 | 7950 ft | 245 kts | 131° |
| 2026-05-06 01:43 | 41.97327 | -113.23208 | 7943 ft | 248 kts | 131° |
| 2026-05-06 01:44 | 41.96138 | -113.21510 | 7939 ft | 251 kts | 131° |
| 2026-05-06 01:44 | 41.94940 | -113.19808 | 7953 ft | 248 kts | 131° |
| 2026-05-06 01:44 | 41.93770 | -113.18130 | 7949 ft | 243 kts | 131° |
| 2026-05-06 01:44 | 41.92626 | -113.16476 | 7936 ft | 240 kts | 131° |
| 2026-05-06 01:45 | 41.91475 | -113.14835 | 7943 ft | 242 kts | 131° |
| 2026-05-06 01:45 | 41.90305 | -113.13193 | 7949 ft | 244 kts | 133° |
| 2026-05-06 01:45 | 41.89147 | -113.11549 | 7954 ft | 240 kts | 131° |
| 2026-05-06 01:45 | 41.88008 | -113.09916 | 7942 ft | 238 kts | 132° |
| 2026-05-06 01:46 | 41.86905 | -113.08309 | 7939 ft | 238 kts | 131° |
| 2026-05-06 01:46 | 41.85770 | -113.06669 | 7940 ft | 241 kts | 131° |
| 2026-05-06 01:46 | 41.84615 | -113.05009 | 7936 ft | 246 kts | 131° |
| 2026-05-06 01:46 | 41.83438 | -113.03334 | 7944 ft | 246 kts | 131° |
| 2026-05-06 01:47 | 41.82258 | -113.01689 | 7940 ft | 243 kts | 131° |
| 2026-05-06 01:47 | 41.81091 | -113.00064 | 7927 ft | 242 kts | 131° |
| 2026-05-06 01:47 | 41.79911 | -112.98436 | 7927 ft | 245 kts | 131° |
| 2026-05-06 01:47 | 41.78731 | -112.96800 | 7925 ft | 243 kts | 131° |
| 2026-05-06 01:48 | 41.77552 | -112.95166 | 7921 ft | 244 kts | 131° |
| 2026-05-06 01:48 | 41.76371 | -112.93534 | 7920 ft | 242 kts | 131° |
| 2026-05-06 01:48 | 41.75222 | -112.91933 | 7916 ft | 241 kts | 131° |
| 2026-05-06 01:48 | 41.74050 | -112.90307 | 7922 ft | 243 kts | 131° |
| 2026-05-06 01:49 | 41.72874 | -112.88672 | 7930 ft | 244 kts | 131° |
| 2026-05-06 01:49 | 41.71696 | -112.87033 | 7930 ft | 244 kts | 131° |
| 2026-05-06 01:49 | 41.70527 | -112.85395 | 7936 ft | 243 kts | 131° |
| 2026-05-06 01:49 | 41.69370 | -112.83759 | 7920 ft | 242 kts | 131° |
| 2026-05-06 01:50 | 41.68210 | -112.82124 | 8010 ft | 247 kts | 131° |
| 2026-05-06 01:50 | 41.67017 | -112.80458 | 9022 ft | 256 kts | 131° |
| 2026-05-06 01:50 | 41.65733 | -112.78659 | 8974 ft | 268 kts | 131° |
| 2026-05-06 01:50 | 41.64475 | -112.76898 | 8923 ft | 255 kts | 131° |
| 2026-05-06 01:51 | 41.63286 | -112.75220 | 8916 ft | 242 kts | 131° |
| 2026-05-06 01:51 | 41.62151 | -112.73615 | 8918 ft | 237 kts | 131° |
| 2026-05-06 01:51 | 41.61001 | -112.71992 | 8918 ft | 242 kts | 131° |
| 2026-05-06 01:51 | 41.59838 | -112.70345 | 8920 ft | 246 kts | 131° |
| 2026-05-06 01:52 | 41.58664 | -112.68677 | 8925 ft | 247 kts | 131° |
| 2026-05-06 01:52 | 41.57501 | -112.67025 | 8948 ft | 246 kts | 131° |
| 2026-05-06 01:52 | 41.56333 | -112.65375 | 8990 ft | 245 kts | 131° |
| 2026-05-06 01:52 | 41.55161 | -112.63723 | 8993 ft | 246 kts | 131° |
| 2026-05-06 01:53 | 41.53982 | -112.62062 | 9004 ft | 246 kts | 131° |
| 2026-05-06 01:53 | 41.52804 | -112.60400 | 9004 ft | 247 kts | 131° |
| 2026-05-06 01:53 | 41.51621 | -112.58730 | 9001 ft | 246 kts | 131° |
| 2026-05-06 01:53 | 41.50449 | -112.57076 | 8998 ft | 245 kts | 131° |
| 2026-05-06 01:54 | 41.49281 | -112.55421 | 9000 ft | 243 kts | 131° |
| 2026-05-06 01:54 | 41.48120 | -112.53775 | 8998 ft | 244 kts | 131° |
| 2026-05-06 01:54 | 41.46954 | -112.52119 | 9004 ft | 246 kts | 131° |
| 2026-05-06 01:54 | 41.45781 | -112.50456 | 9009 ft | 247 kts | 131° |
| 2026-05-06 01:55 | 41.44603 | -112.48782 | 8998 ft | 247 kts | 131° |
| 2026-05-06 01:55 | 41.43433 | -112.47116 | 9004 ft | 246 kts | 131° |
| 2026-05-06 01:55 | 41.42279 | -112.45480 | 9005 ft | 246 kts | 131° |
| 2026-05-06 01:55 | 41.41108 | -112.43810 | 9005 ft | 246 kts | 131° |
| 2026-05-06 01:56 | 41.39947 | -112.42128 | 9005 ft | 248 kts | 131° |
| 2026-05-06 01:56 | 41.38769 | -112.40420 | 9015 ft | 250 kts | 131° |
| 2026-05-06 01:56 | 41.37593 | -112.38727 | 9017 ft | 248 kts | 131° |
| 2026-05-06 01:56 | 41.36424 | -112.37050 | 9020 ft | 245 kts | 131° |
| 2026-05-06 01:57 | 41.35267 | -112.35393 | 9028 ft | 244 kts | 131° |
| 2026-05-06 01:57 | 41.34108 | -112.33732 | 9034 ft | 244 kts | 131° |
| 2026-05-06 01:57 | 41.32951 | -112.32073 | 9036 ft | 245 kts | 131° |
| 2026-05-06 01:57 | 41.31792 | -112.30413 | 9047 ft | 245 kts | 131° |
| 2026-05-06 01:58 | 41.30628 | -112.28744 | 9053 ft | 246 kts | 131° |
| 2026-05-06 01:58 | 41.29465 | -112.27072 | 9063 ft | 246 kts | 131° |
| 2026-05-06 01:58 | 41.28300 | -112.25401 | 9066 ft | 247 kts | 131° |
| 2026-05-06 01:58 | 41.27150 | -112.23751 | 9074 ft | 247 kts | 131° |
| 2026-05-06 01:59 | 41.25985 | -112.22072 | 9079 ft | 247 kts | 131° |
| 2026-05-06 01:59 | 41.24814 | -112.20387 | 9088 ft | 252 kts | 131° |
| 2026-05-06 01:59 | 41.23576 | -112.18605 | 9099 ft | 276 kts | 131° |
| 2026-05-06 01:59 | 41.22212 | -112.16634 | 9110 ft | 299 kts | 131° |
| 2026-05-06 02:00 | 41.20784 | -112.14576 | 9111 ft | 306 kts | 130° |
| 2026-05-06 02:00 | 41.19338 | -112.12496 | 9120 ft | 306 kts | 131° |
| 2026-05-06 02:00 | 41.17905 | -112.10424 | 9116 ft | 303 kts | 131° |
| 2026-05-06 02:00 | 41.16487 | -112.08369 | 9110 ft | 300 kts | 131° |
| 2026-05-06 02:01 | 41.15089 | -112.06333 | 9123 ft | 298 kts | 131° |
| 2026-05-06 02:01 | 41.13673 | -112.04315 | 9125 ft | 298 kts | 136° |
| 2026-05-06 02:01 | 41.11868 | -112.02971 | 9117 ft | 301 kts | 165° |
| 2026-05-06 02:01 | 41.09782 | -112.02843 | 9127 ft | 300 kts | 187° |
| 2026-05-06 02:02 | 41.07696 | -112.03076 | 9127 ft | 301 kts | 182° |
| 2026-05-06 02:02 | 41.05761 | -112.02944 | 8413 ft | 262 kts | 175° |
| 2026-05-06 02:02 | 41.03765 | -112.02630 | 7445 ft | 291 kts | 174° |
| 2026-05-06 02:02 | 41.01831 | -112.02363 | 7419 ft | 273 kts | 175° |
| 2026-05-06 02:03 | 40.99876 | -112.02158 | 6579 ft | 288 kts | 176° |
| 2026-05-06 02:03 | 40.97924 | -112.01950 | 6305 ft | 276 kts | 175° |
| 2026-05-06 02:03 | 40.96039 | -112.01706 | 6107 ft | 264 kts | 174° |
| 2026-05-06 02:03 | 40.94249 | -112.01509 | 6085 ft | 247 kts | 175° |
| 2026-05-06 02:04 | 40.92664 | -112.01317 | 6086 ft | 217 kts | 174° |
| 2026-05-06 02:04 | 40.91184 | -112.01146 | 6097 ft | 211 kts | 175° |
| 2026-05-06 02:04 | 40.89707 | -112.00973 | 6053 ft | 217 kts | 174° |
| 2026-05-06 02:04 | 40.88351 | -112.00810 | 6117 ft | 174 kts | 175° |
| 2026-05-06 02:05 | 40.87149 | -112.00678 | 5751 ft | 165 kts | 174° |
| 2026-05-06 02:05 | 40.86046 | -112.00542 | 5365 ft | 156 kts | 175° |
| 2026-05-06 02:05 | 40.84994 | -112.00419 | 5142 ft | 153 kts | 176° |
| 2026-05-06 02:05 | 40.83926 | -112.00294 | 4929 ft | 150 kts | 176° |
| 2026-05-06 02:06 | 40.82895 | -112.00173 | 4719 ft | 146 kts | 176° |
| 2026-05-06 02:06 | 40.81906 | -112.00058 | 4521 ft | 142 kts | 176° |
| 2026-05-06 02:06 | 40.80944 | -111.99945 | 4308 ft | 134 kts | 175° |
| 2026-05-06 02:06 | 40.80069 | -111.99846 | 4230 ft | 110 kts | 175° |
| 2026-05-06 02:07 | 40.79416 | -111.99777 | 4226 ft | 77 kts | 185° |
| 2026-05-06 02:07 | 40.78947 | -111.99715 | 4235 ft | 59 kts | 173° |
| 2026-05-06 02:07 | 40.78616 | -111.99667 | 4234 ft | 23 kts | 164° |
| 2026-05-06 02:07 | 40.78504 | -111.99592 | 4230 ft | 15 kts | 141° |
| 2026-05-06 02:08 | 40.78458 | -111.99539 | 4229 ft | 0 kts | 138° |
| 2026-05-06 02:08 | 40.78446 | -111.99520 | 4229 ft | 10 kts | 126° |
| 2026-05-06 02:08 | 40.78428 | -111.99403 | 4230 ft | 15 kts | 78° |
| 2026-05-06 02:09 | 40.78505 | -111.99350 | 4230 ft | 19 kts | 356° |
| 2026-05-06 02:09 | 40.78701 | -111.99373 | 4233 ft | 37 kts | 353° |
| 2026-05-06 02:09 | 40.79013 | -111.99411 | 4232 ft | 50 kts | 353° |
| 2026-05-06 02:09 | 40.79166 | -111.99384 | 4232 ft | 17 kts | 55° |
| 2026-05-06 02:10 | 40.79212 | -111.99154 | 4228 ft | 36 kts | 96° |
| 2026-05-06 02:10 | 40.79237 | -111.98862 | 4228 ft | 14 kts | 20° |